createdAt,value
2023-02-09T00:01:09.554Z,97.13
2023-02-09T00:03:59.613Z,94.97
2023-02-09T00:06:48.953Z,100.15
2023-02-09T00:09:30.775Z,94.65
2023-02-09T00:12:38.495Z,90.15
2023-02-09T00:15:27.520Z,96.00
2023-02-09T00:18:09.884Z,90.85
2023-02-09T00:20:59.610Z,91.63
2023-02-09T00:23:56.437Z,87.53
2023-02-09T00:26:46.516Z,89.32
2023-02-09T00:29:28.839Z,86.72
2023-02-09T00:32:17.562Z,85.82
2023-02-09T00:34:59.818Z,83.82
2023-02-09T00:37:49.529Z,81.10
2023-02-09T00:40:38.558Z,82.32
2023-02-09T00:43:26.866Z,76.97
2023-02-09T00:46:09.657Z,74.90
2023-02-09T00:48:51.733Z,72.18
2023-02-09T00:51:40.546Z,71.68
2023-02-09T00:54:29.889Z,69.63
2023-02-09T00:57:13.593Z,67.90
2023-02-09T01:02:45.505Z,63.67
2023-02-09T01:05:27.831Z,71.22
2023-02-09T01:08:16.536Z,68.45
2023-02-09T01:11:05.530Z,71.32
2023-02-09T01:13:48.991Z,72.95
2023-02-09T01:16:39.567Z,75.35
2023-02-09T01:19:21.980Z,80.13
2023-02-09T01:22:11.487Z,80.18
2023-02-09T01:24:59.760Z,80.22
2023-02-09T01:27:42.523Z,79.03
2023-02-09T01:30:30.770Z,76.28
2023-02-09T01:33:13.489Z,77.80
2023-02-09T01:36:06.464Z,79.75
2023-02-09T01:38:55.530Z,78.85
2023-02-09T01:41:38.446Z,80.18
2023-02-09T01:44:27.567Z,82.22
2023-02-09T01:47:19.215Z,83.55
2023-02-09T01:50:08.505Z,86.38
2023-02-09T01:52:52.456Z,85.95
2023-02-09T01:55:47.534Z,86.47
2023-02-09T02:01:19.818Z,77.05
2023-02-09T02:04:08.541Z,84.00
2023-02-09T02:06:50.809Z,78.85
2023-02-09T02:09:39.593Z,76.07
2023-02-09T02:12:26.599Z,76.32
2023-02-09T02:15:16.643Z,74.93
2023-02-09T02:18:32.990Z,75.38
2023-02-09T02:21:48.577Z,75.50
2023-02-09T02:24:58.452Z,75.05
2023-02-09T02:28:14.556Z,76.22
2023-02-09T02:31:30.589Z,74.53
2023-02-09T02:34:43.081Z,73.82
2023-02-09T02:37:37.536Z,74.43
2023-02-09T02:40:22.867Z,73.13
2023-02-09T02:43:33.489Z,72.20
2023-02-09T02:46:37.066Z,77.20
2023-02-09T02:49:34.524Z,80.90
2023-02-09T02:52:23.908Z,74.45
2023-02-09T02:55:14.502Z,74.65
2023-02-09T02:58:04.236Z,70.65
2023-02-09T03:01:01.545Z,70.20
2023-02-09T03:03:52.854Z,72.15
2023-02-09T03:06:35.571Z,73.47
2023-02-09T03:09:25.809Z,74.28
2023-02-09T03:12:26.522Z,67.97
2023-02-09T03:15:31.843Z,69.97
2023-02-09T03:18:30.979Z,67.95
2023-02-09T03:21:15.526Z,68.00
2023-02-09T03:24:14.568Z,66.55
2023-02-09T03:28:01.497Z,66.10
2023-02-09T03:30:52.605Z,66.80
2023-02-09T03:33:44.419Z,65.03
2023-02-09T03:36:39.474Z,65.90
2023-02-09T03:39:21.804Z,63.63
2023-02-09T03:42:10.600Z,63.70
2023-02-09T03:44:52.871Z,63.22
2023-02-09T03:47:41.619Z,62.40
2023-02-09T03:50:24.885Z,58.58
2023-02-09T03:53:16.497Z,56.92
2023-02-09T03:55:58.741Z,56.53
2023-02-09T03:58:47.635Z,55.00
2023-02-09T04:01:29.792Z,55.08
2023-02-09T04:04:18.464Z,55.95
2023-02-09T04:07:01.795Z,55.65
2023-02-09T04:09:50.550Z,53.63
2023-02-09T04:12:32.854Z,52.30
2023-02-09T04:15:21.448Z,51.90
2023-02-09T04:18:03.720Z,50.10
2023-02-09T04:20:52.806Z,48.95
2023-02-09T04:23:34.777Z,48.95
2023-02-09T04:26:23.538Z,45.67
2023-02-09T04:29:05.894Z,46.53
2023-02-09T04:31:54.517Z,48.75
2023-02-09T04:34:36.718Z,46.35
2023-02-09T04:37:25.504Z,45.92
2023-02-09T04:40:14.447Z,46.60
2023-02-09T04:42:56.619Z,48.72
2023-02-09T04:45:45.535Z,46.53
2023-02-09T04:48:35.850Z,45.30
2023-02-09T04:51:18.534Z,47.88
2023-02-09T04:54:00.926Z,50.42
2023-02-09T04:56:49.503Z,47.67
2023-02-09T04:59:37.447Z,57.75
2023-02-09T05:02:27.615Z,50.47
2023-02-09T05:05:16.805Z,52.80
2023-02-09T05:07:59.559Z,43.13
2023-02-09T05:10:47.968Z,42.15
2023-02-09T05:13:31.486Z,40.95
2023-02-09T05:16:27.567Z,42.17
2023-02-09T05:19:10.230Z,41.47
2023-02-09T05:22:00.902Z,40.47
2023-02-09T05:24:48.749Z,38.58
2023-02-09T05:27:30.506Z,37.60
2023-02-09T05:30:19.490Z,36.05
2023-02-09T05:33:01.834Z,38.97
2023-02-09T05:35:50.463Z,41.83
2023-02-09T05:38:32.754Z,37.00
2023-02-09T05:41:45.495Z,32.42
2023-02-09T05:44:27.821Z,32.20
2023-02-09T05:47:16.560Z,32.55
2023-02-09T05:49:59.793Z,33.45
2023-02-09T05:52:48.510Z,34.70
2023-02-09T05:55:30.932Z,33.55
2023-02-09T05:58:19.492Z,33.38
2023-02-09T06:01:01.998Z,32.13
2023-02-09T06:03:50.483Z,32.60
2023-02-09T06:06:32.897Z,34.42
2023-02-09T06:09:21.539Z,31.58
2023-02-09T06:12:03.906Z,29.08
2023-02-09T06:14:52.493Z,28.88
2023-02-09T06:17:34.779Z,28.75
2023-02-09T06:20:23.429Z,28.08
2023-02-09T06:23:08.312Z,28.35
2023-02-09T06:26:00.841Z,28.10
2023-02-09T06:28:43.778Z,30.38
2023-02-09T06:31:32.581Z,26.88
2023-02-09T06:34:14.776Z,26.25
2023-02-09T06:37:03.486Z,25.55
2023-02-09T06:39:45.900Z,25.63
2023-02-09T06:42:51.431Z,21.80
2023-02-09T06:45:33.861Z,20.85
2023-02-09T06:48:22.454Z,18.25
2023-02-09T06:51:04.742Z,20.58
2023-02-09T06:53:53.538Z,20.63
2023-02-09T06:56:36.837Z,20.98
2023-02-09T06:59:25.514Z,21.17
2023-02-09T07:02:14.449Z,21.23
2023-02-09T07:05:02.788Z,20.85
2023-02-09T07:07:45.439Z,20.08
2023-02-09T07:10:34.701Z,20.63
2023-02-09T07:13:17.528Z,20.10
2023-02-09T07:16:08.856Z,20.10
2023-02-09T07:18:51.504Z,20.33
2023-02-09T07:21:39.822Z,18.98
2023-02-09T07:24:28.539Z,20.58
2023-02-09T07:27:12.762Z,21.40
2023-02-09T07:30:01.814Z,20.25
2023-02-09T07:32:48.776Z,20.75
2023-02-09T07:35:37.542Z,19.33
2023-02-09T07:38:20.756Z,18.73
2023-02-09T07:41:11.470Z,18.80
2023-02-09T07:43:54.786Z,17.58
2023-02-09T07:46:43.575Z,18.27
2023-02-09T07:49:25.773Z,19.65
2023-02-09T07:52:14.418Z,21.63
2023-02-09T07:54:57.722Z,19.95
2023-02-09T07:57:46.488Z,19.98
2023-02-09T08:00:28.705Z,19.65
2023-02-09T08:03:17.488Z,20.25
2023-02-09T08:06:08.751Z,20.00
2023-02-09T08:08:59.419Z,20.42
2023-02-09T08:11:46.817Z,19.30
2023-02-09T08:14:44.478Z,18.73
2023-02-09T08:17:37.427Z,17.00
2023-02-09T08:20:22.984Z,15.70
2023-02-09T08:23:20.498Z,15.13
2023-02-09T08:26:14.790Z,14.57
2023-02-09T08:28:57.547Z,14.60
2023-02-09T08:31:46.267Z,14.52
2023-02-09T08:34:29.427Z,14.15
2023-02-09T08:37:17.856Z,14.47
2023-02-09T08:39:59.580Z,14.77
2023-02-09T08:42:47.772Z,13.80
2023-02-09T08:45:30.604Z,13.05
2023-02-09T08:48:18.729Z,15.00
2023-02-09T08:51:00.464Z,12.45
2023-02-09T08:53:52.237Z,12.02
2023-02-09T08:56:34.776Z,13.13
2023-02-09T08:59:23.466Z,14.98
2023-02-09T09:02:05.762Z,16.30
2023-02-09T09:04:54.408Z,15.15
2023-02-09T09:07:43.443Z,15.60
2023-02-09T09:10:31.756Z,15.98
2023-02-09T09:13:14.404Z,18.10
2023-02-09T09:16:05.219Z,20.35
2023-02-09T09:18:47.822Z,19.77
2023-02-09T09:21:36.536Z,20.48
2023-02-09T09:24:18.722Z,22.08
2023-02-09T09:27:07.475Z,22.58
2023-02-09T09:29:56.473Z,23.77
2023-02-09T09:32:44.785Z,23.55
2023-02-09T09:35:26.527Z,25.25
2023-02-09T09:38:14.766Z,25.50
2023-02-09T09:40:57.610Z,23.98
2023-02-09T09:44:02.319Z,25.38
2023-02-09T09:46:59.424Z,26.15
2023-02-09T09:49:45.877Z,27.13
2023-02-09T09:52:48.506Z,30.58
2023-02-09T09:55:37.741Z,33.85
2023-02-09T09:58:28.403Z,38.35
2023-02-09T10:01:10.770Z,35.58
2023-02-09T10:03:59.420Z,35.53
2023-02-09T10:06:48.468Z,37.47
2023-02-09T10:09:53.743Z,34.58
2023-02-09T10:12:57.441Z,35.70
2023-02-09T10:15:46.994Z,35.80
2023-02-09T10:18:33.530Z,37.05
2023-02-09T10:21:24.742Z,37.60
2023-02-09T10:24:37.392Z,38.28
2023-02-09T10:27:29.423Z,40.22
2023-02-09T10:30:43.499Z,39.42
2023-02-09T10:33:32.849Z,43.10
2023-02-09T10:36:30.975Z,43.97
2023-02-09T10:39:33.857Z,47.10
2023-02-09T10:42:32.514Z,47.88
2023-02-09T10:45:27.179Z,49.65
2023-02-09T10:48:31.451Z,51.60
2023-02-09T10:51:34.618Z,53.00
2023-02-09T10:54:29.512Z,54.47
2023-02-09T10:57:45.728Z,57.75
2023-02-09T11:00:27.450Z,57.42
2023-02-09T11:03:31.290Z,56.72
2023-02-09T11:06:27.472Z,57.22
2023-02-09T11:09:24.363Z,55.33
2023-02-09T11:12:14.443Z,54.65
2023-02-09T11:15:03.884Z,56.17
2023-02-09T11:18:03.451Z,57.80
2023-02-09T11:21:09.541Z,55.13
2023-02-09T11:24:41.735Z,55.00
2023-02-09T11:27:33.472Z,51.97
2023-02-09T11:30:36.758Z,52.95
2023-02-09T11:33:30.451Z,51.85
2023-02-09T11:37:00.396Z,48.38
2023-02-09T11:40:08.888Z,50.80
2023-02-09T11:43:07.465Z,51.88
2023-02-09T11:45:52.564Z,48.70
2023-02-09T11:48:46.498Z,47.40
2023-02-09T11:51:35.841Z,48.58
2023-02-09T11:54:41.494Z,50.83
2023-02-09T11:57:55.707Z,51.78
2023-02-09T12:01:14.656Z,48.33
2023-02-09T12:04:24.339Z,49.92
2023-02-09T12:07:36.496Z,50.70
2023-02-09T12:10:44.097Z,46.63
2023-02-09T12:14:01.447Z,42.72
2023-02-09T12:16:52.475Z,40.17
2023-02-09T12:19:56.435Z,38.65
2023-02-09T12:22:49.899Z,37.50
2023-02-09T12:25:51.269Z,38.22
2023-02-09T12:28:39.777Z,34.90
2023-02-09T12:32:06.621Z,36.38
2023-02-09T12:34:57.754Z,35.72
2023-02-09T12:37:40.471Z,36.05
2023-02-09T12:40:29.731Z,37.20
2023-02-09T12:43:32.458Z,36.95
2023-02-09T12:46:39.660Z,36.72
2023-02-09T12:49:22.488Z,38.10
2023-02-09T12:52:10.786Z,37.13
2023-02-09T12:55:04.471Z,36.20
2023-02-09T12:57:51.961Z,37.97
2023-02-09T13:00:46.475Z,38.40
2023-02-09T13:03:37.836Z,37.20
2023-02-09T13:06:47.448Z,36.88
2023-02-09T13:09:44.900Z,37.97
2023-02-09T13:12:36.560Z,35.63
2023-02-09T13:15:27.916Z,38.85
2023-02-09T13:18:23.486Z,39.00
2023-02-09T13:21:29.953Z,40.25
2023-02-09T13:24:31.409Z,40.15
2023-02-09T13:27:28.933Z,38.63
2023-02-09T13:30:11.604Z,38.05
2023-02-09T13:33:14.905Z,40.60
2023-02-09T13:36:24.650Z,39.72
2023-02-09T13:39:26.988Z,38.05
2023-02-09T13:42:09.605Z,39.53
2023-02-09T13:44:59.797Z,39.90
2023-02-09T13:47:42.494Z,39.60
2023-02-09T13:50:34.485Z,39.60
2023-02-09T13:53:18.572Z,40.72
2023-02-09T13:56:08.974Z,40.03
2023-02-09T13:58:51.490Z,36.97
2023-02-09T14:01:47.020Z,38.08
2023-02-09T14:04:33.380Z,39.17
2023-02-09T14:07:23.057Z,38.10
2023-02-09T14:10:24.451Z,38.20
2023-02-09T14:13:23.881Z,37.58
2023-02-09T14:16:17.569Z,38.88
2023-02-09T14:19:07.768Z,37.10
2023-02-09T14:21:50.443Z,37.75
2023-02-09T14:24:58.497Z,37.13
2023-02-09T14:27:48.945Z,38.58
2023-02-09T14:30:34.633Z,38.40
2023-02-09T14:33:32.414Z,37.13
2023-02-09T14:36:30.422Z,37.97
2023-02-09T14:39:28.442Z,39.75
2023-02-09T14:42:19.104Z,40.55
2023-02-09T14:45:33.390Z,41.58
2023-02-09T14:48:24.956Z,39.80
2023-02-09T14:51:24.537Z,39.95
2023-02-09T14:54:16.496Z,43.63
2023-02-09T14:57:06.862Z,42.58
2023-02-09T14:59:49.359Z,43.95
2023-02-09T15:02:39.740Z,45.30
2023-02-09T15:05:22.495Z,44.20
2023-02-09T15:08:12.753Z,44.85
2023-02-09T15:11:01.604Z,44.75
2023-02-09T15:13:51.141Z,48.17
2023-02-09T15:16:34.474Z,50.00
2023-02-09T15:19:20.962Z,49.15
2023-02-09T15:22:09.509Z,49.10
2023-02-09T15:25:06.334Z,48.70
2023-02-09T15:28:01.445Z,47.22
2023-02-09T15:30:44.063Z,48.58
2023-02-09T15:33:34.467Z,50.45
2023-02-09T15:36:25.838Z,47.72
2023-02-09T15:39:23.507Z,47.47
2023-02-09T15:42:24.239Z,48.72
2023-02-09T15:45:49.439Z,49.00
2023-02-09T15:48:33.409Z,48.35
2023-02-09T15:51:23.477Z,49.80
2023-02-09T15:54:07.705Z,50.55
2023-02-09T15:56:56.749Z,52.97
2023-02-09T15:59:38.744Z,51.30
2023-02-09T16:02:27.433Z,53.83
2023-02-09T16:05:09.768Z,54.88
2023-02-09T16:08:00.502Z,52.88
2023-02-09T16:10:42.720Z,55.28
2023-02-09T16:13:31.427Z,55.40
2023-02-09T16:16:17.324Z,53.92
2023-02-09T16:19:06.418Z,56.90
2023-02-09T16:21:51.697Z,55.17
2023-02-09T16:24:46.417Z,57.05
2023-02-09T16:27:33.777Z,55.78
2023-02-09T16:30:31.118Z,55.38
2023-02-09T16:33:13.869Z,56.88
2023-02-09T16:36:10.457Z,58.42
2023-02-09T16:38:52.851Z,57.33
2023-02-09T16:42:00.470Z,58.28
2023-02-09T16:44:42.912Z,62.13
2023-02-09T16:47:35.429Z,59.28
2023-02-09T16:50:48.209Z,60.33
2023-02-09T16:53:43.453Z,62.92
2023-02-09T16:56:28.643Z,61.63
2023-02-09T16:59:21.454Z,61.72
2023-02-09T17:02:03.933Z,62.22
2023-02-09T17:04:54.420Z,63.20
2023-02-09T17:07:53.980Z,63.50
2023-02-09T17:10:45.563Z,63.55
2023-02-09T17:13:29.906Z,63.75
2023-02-09T17:16:43.490Z,63.33
2023-02-09T17:19:29.297Z,61.55
2023-02-09T17:22:22.374Z,61.22
2023-02-09T17:25:18.275Z,62.17
2023-02-09T17:28:08.483Z,59.33
2023-02-09T17:30:51.767Z,58.22
2023-02-09T17:33:43.526Z,59.30
2023-02-09T17:36:28.940Z,56.55
2023-02-09T17:39:20.416Z,57.72
2023-02-09T17:42:02.888Z,55.78
2023-02-09T17:44:51.504Z,55.83
2023-02-09T17:47:33.891Z,54.28
2023-02-09T17:50:22.534Z,55.55
2023-02-09T17:53:05.899Z,50.47
2023-02-09T17:55:55.472Z,53.30
2023-02-09T17:58:37.900Z,53.20
2023-02-09T18:01:37.555Z,49.95
2023-02-09T18:04:29.858Z,50.53
2023-02-09T18:07:18.549Z,50.40
2023-02-09T18:10:00.864Z,49.63
2023-02-09T18:12:50.401Z,49.63
2023-02-09T18:15:41.570Z,46.85
2023-02-09T18:18:30.422Z,46.47
2023-02-09T18:21:12.940Z,45.15
2023-02-09T18:24:01.425Z,44.67
2023-02-09T18:26:52.150Z,43.80
2023-02-09T18:29:37.793Z,44.83
2023-02-09T18:32:27.421Z,43.97
2023-02-09T18:35:10.514Z,42.38
2023-02-09T18:37:53.454Z,42.03
2023-02-09T18:40:43.398Z,43.58
2023-02-09T18:43:32.774Z,42.17
2023-02-09T18:46:15.540Z,41.50
2023-02-09T18:49:04.896Z,42.37
2023-02-09T18:51:46.474Z,41.90
2023-02-09T18:54:35.922Z,41.10
2023-02-09T18:57:18.406Z,40.30
2023-02-09T19:00:11.892Z,40.50
2023-02-09T19:02:54.453Z,41.50
2023-02-09T19:05:43.811Z,42.30
2023-02-09T19:08:26.416Z,39.72
2023-02-09T19:11:15.859Z,39.67
2023-02-09T19:14:16.348Z,39.95
2023-02-09T19:17:05.753Z,39.90
2023-02-09T19:19:48.399Z,38.40
2023-02-09T19:22:37.860Z,39.20
2023-02-09T19:25:34.415Z,38.28
2023-02-09T19:28:23.778Z,40.90
2023-02-09T19:31:06.405Z,37.47
2023-02-09T19:33:54.751Z,39.15
2023-02-09T19:36:37.394Z,38.88
2023-02-09T19:39:26.965Z,38.63
2023-02-09T19:42:10.688Z,36.05
2023-02-09T19:45:01.746Z,38.72
2023-02-09T19:47:46.398Z,36.63
2023-02-09T19:50:37.615Z,37.28
2023-02-09T19:53:21.415Z,38.15
2023-02-09T19:56:03.682Z,39.03
2023-02-09T19:58:52.454Z,36.72
2023-02-09T20:01:41.695Z,35.85
2023-02-09T20:04:24.392Z,36.63
2023-02-09T20:07:06.858Z,36.70
2023-02-09T20:09:56.388Z,34.92
2023-02-09T20:15:32.897Z,35.47
2023-02-09T20:18:22.392Z,35.40
2023-02-09T20:21:04.828Z,34.08
2023-02-09T20:23:53.406Z,33.22
2023-02-09T20:26:41.804Z,34.47
2023-02-09T20:29:24.366Z,34.88
2023-02-09T20:32:13.825Z,36.75
2023-02-09T20:34:55.381Z,34.35
2023-02-09T20:37:37.642Z,34.40
2023-02-09T20:40:29.327Z,35.65
2023-02-09T20:43:32.242Z,34.95
2023-02-09T20:46:41.446Z,34.33
2023-02-09T20:49:33.692Z,34.67
2023-02-09T20:52:15.792Z,35.63
2023-02-09T20:55:04.361Z,36.50
2023-02-09T20:57:46.658Z,35.72
2023-02-09T21:00:35.467Z,34.20
2023-02-09T21:03:20.259Z,36.00
2023-02-09T21:06:09.392Z,35.40
2023-02-09T21:08:53.007Z,34.85
2023-02-09T21:11:44.379Z,34.38
2023-02-09T21:14:41.856Z,35.22
2023-02-09T21:17:24.772Z,34.45
2023-02-09T21:20:14.434Z,35.08
2023-02-09T21:23:03.741Z,35.13
2023-02-09T21:25:59.401Z,35.22
2023-02-09T21:28:53.048Z,34.38
2023-02-09T21:31:36.571Z,34.95
2023-02-09T21:34:18.770Z,34.83
2023-02-09T21:37:07.425Z,34.88
2023-02-09T21:39:56.274Z,35.80
2023-02-09T21:42:45.463Z,35.75
2023-02-09T21:45:33.687Z,35.80
2023-02-09T21:48:16.414Z,33.55
2023-02-09T21:51:05.216Z,37.95
2023-02-09T21:53:54.313Z,34.42
2023-02-09T21:56:43.382Z,35.85
2023-02-09T21:59:25.728Z,35.60
2023-02-09T22:02:15.321Z,36.75
2023-02-09T22:05:04.399Z,36.45
2023-02-09T22:07:54.186Z,37.45
2023-02-09T22:10:36.385Z,35.72
2023-02-09T22:13:25.632Z,36.67
2023-02-09T22:16:08.347Z,36.35
2023-02-09T22:18:57.671Z,37.67
2023-02-09T22:21:40.397Z,35.75
2023-02-09T22:24:31.066Z,36.03
2023-02-09T22:27:20.390Z,38.10
2023-02-09T22:30:02.656Z,36.72
2023-02-09T22:32:51.371Z,36.08
2023-02-09T22:35:33.612Z,36.15
2023-02-09T22:38:22.461Z,38.13
2023-02-09T22:41:04.740Z,37.65
2023-02-09T22:43:53.389Z,37.83
2023-02-09T22:46:46.365Z,36.03
2023-02-09T22:49:28.587Z,38.07
2023-02-09T22:52:17.383Z,37.50
2023-02-09T22:55:06.663Z,37.58
2023-02-09T22:57:49.413Z,38.22
2023-02-09T23:00:37.658Z,39.00
2023-02-09T23:03:20.364Z,36.05
2023-02-09T23:06:14.628Z,37.53
2023-02-09T23:09:00.774Z,36.00
2023-02-09T23:11:49.354Z,37.92
2023-02-09T23:14:31.639Z,38.67
2023-02-09T23:17:20.420Z,39.67
2023-02-09T23:20:02.610Z,38.75
2023-02-09T23:22:51.382Z,38.53
2023-02-09T23:25:47.403Z,40.05
2023-02-09T23:28:36.469Z,39.05
2023-02-09T23:31:28.403Z,37.42
2023-02-09T23:34:17.927Z,41.20
2023-02-09T23:37:13.775Z,41.08
2023-02-09T23:40:05.708Z,40.70
2023-02-09T23:42:54.476Z,40.70
2023-02-09T23:45:42.667Z,41.42
2023-02-09T23:48:25.414Z,40.65
2023-02-09T23:51:16.874Z,38.45
2023-02-09T23:53:59.388Z,39.78
2023-02-09T23:56:48.652Z,40.30
2023-02-09T23:59:31.383Z,39.10
